createdAt,value
2018-10-19T00:12:20.925Z,1014.32
2018-10-19T00:13:13.293Z,1014.31
2018-10-19T00:14:05.328Z,1014.28
2018-10-19T00:14:57.740Z,1014.25
2018-10-19T00:27:19.528Z,1014.26
2018-10-19T00:28:11.632Z,1014.23
2018-10-19T00:29:03.977Z,1014.23
2018-10-19T00:29:56.393Z,1014.25
2018-10-19T00:30:48.988Z,1014.21
2018-10-19T00:31:41.082Z,1014.2
2018-10-19T00:32:33.389Z,1014.2
2018-10-19T00:33:25.653Z,1014.19
2018-10-19T00:34:17.911Z,1014.2
2018-10-19T00:35:10.563Z,1014.19
2018-10-19T00:36:02.996Z,1014.21
2018-10-19T00:36:55.504Z,1014.15
2018-10-19T00:37:47.514Z,1014.18
2018-10-19T00:38:40.224Z,1014.16
2018-10-19T00:39:32.472Z,1014.13
2018-10-19T00:40:25.004Z,1014.15
2018-10-19T00:41:17.580Z,1014.17
2018-10-19T00:42:10.086Z,1014.13
2018-10-19T00:43:02.334Z,1014.15
2018-10-19T00:43:55.083Z,1014.15
2018-10-19T00:44:47.540Z,1014.16
2018-10-19T00:45:39.479Z,1014.16
2018-10-19T00:46:31.794Z,1014.18
2018-10-19T00:47:23.971Z,1014.19
2018-10-19T00:48:16.278Z,1014.2
2018-10-19T00:49:08.332Z,1014.2
2018-10-19T00:50:00.372Z,1014.17
2018-10-19T00:50:52.753Z,1014.18
2018-10-19T00:51:44.909Z,1014.17
2018-10-19T00:52:37.393Z,1014.2
2018-10-19T00:53:29.810Z,1014.21
2018-10-19T00:54:23.048Z,1014.15
2018-10-19T00:55:15.518Z,1014.16
2018-10-19T00:56:07.789Z,1014.15
2018-10-19T00:56:59.767Z,1014.16
2018-10-19T00:57:52.139Z,1014.18
2018-10-19T00:58:44.907Z,1014.19
2018-10-19T00:59:37.685Z,1014.2
2018-10-19T01:00:31.054Z,1014.16
2018-10-19T01:01:22.927Z,1014.17
2018-10-19T01:02:15.289Z,1014.16
2018-10-19T01:03:07.773Z,1014.17
2018-10-19T01:03:59.851Z,1014.21
2018-10-19T01:04:52.128Z,1014.17
2018-10-19T01:05:45.039Z,1014.2
2018-10-19T01:06:37.963Z,1014.18
2018-10-19T01:07:29.993Z,1014.19
2018-10-19T01:08:22.962Z,1014.23
2018-10-19T01:09:15.596Z,1014.24
2018-10-19T01:10:09.284Z,1014.17
2018-10-19T01:11:01.422Z,1014.2
2018-10-19T01:11:53.763Z,1014.2
2018-10-19T01:12:46.345Z,1014.19
2018-10-19T01:13:38.642Z,1014.14
2018-10-19T01:14:30.505Z,1014.16
2018-10-19T01:15:22.811Z,1014.14
2018-10-19T01:16:14.838Z,1014.13
2018-10-19T01:17:07.121Z,1014.14
2018-10-19T01:17:59.422Z,1014.13
2018-10-19T01:18:52.002Z,1014.1
2018-10-19T01:19:43.978Z,1014.1
2018-10-19T01:20:36.460Z,1014.09
2018-10-19T01:21:28.357Z,1014.07
2018-10-19T01:22:21.441Z,1014.04
2018-10-19T01:23:13.918Z,1014.05
2018-10-19T01:24:06.397Z,1014.01
2018-10-19T01:24:58.769Z,1014.03
2018-10-19T01:25:51.671Z,1014.02
2018-10-19T01:26:44.977Z,1014
2018-10-19T01:27:38.313Z,1013.99
2018-10-19T01:28:30.410Z,1014.03
2018-10-19T01:29:22.819Z,1013.97
2018-10-19T01:30:15.976Z,1013.97
2018-10-19T01:31:08.010Z,1013.9
2018-10-19T01:32:02.846Z,1013.97
2018-10-19T01:32:55.432Z,1013.92
2018-10-19T01:33:49.148Z,1013.95
2018-10-19T01:34:43.224Z,1013.97
2018-10-19T01:35:35.370Z,1013.95
2018-10-19T01:36:29.539Z,1013.98
2018-10-19T01:37:22.543Z,1014
2018-10-19T01:38:15.044Z,1013.99
2018-10-19T01:39:07.315Z,1013.99
2018-10-19T01:40:02.940Z,1014.05
2018-10-19T01:40:56.472Z,1014.04
2018-10-19T01:41:48.902Z,1014.07
2018-10-19T01:42:42.630Z,1014.07
2018-10-19T01:43:34.598Z,1014.06
2018-10-19T01:44:26.955Z,1014.08
2018-10-19T01:45:19.704Z,1014.06
2018-10-19T01:46:14.531Z,1014.13
2018-10-19T01:47:07.181Z,1014.11
2018-10-19T01:47:59.662Z,1014.12
2018-10-19T01:48:51.640Z,1014.13
2018-10-19T01:49:44.321Z,1014.18
2018-10-19T01:50:40.523Z,1014.18
2018-10-19T01:51:38.350Z,1014.15
2018-10-19T01:52:38.568Z,1014.16
2018-10-19T01:53:41.531Z,1014.16
2018-10-19T01:54:36.950Z,1014.14
2018-10-19T01:55:39.381Z,1014.13
2018-10-19T01:56:39.110Z,1014.15
2018-10-19T01:57:36.679Z,1014.13
2018-10-19T01:58:35.882Z,1014.12
2018-10-19T01:59:32.995Z,1014.14
2018-10-19T02:00:32.923Z,1014.14
2018-10-19T02:01:29.497Z,1014.17
2018-10-19T02:02:25.169Z,1014.17
2018-10-19T02:03:22.414Z,1014.2
2018-10-19T02:04:24.074Z,1014.19
2018-10-19T02:05:21.982Z,1014.19
2018-10-19T02:06:22.222Z,1014.19
2018-10-19T02:07:19.534Z,1014.2
2018-10-19T02:08:19.863Z,1014.2
2018-10-19T02:09:17.928Z,1014.18
2018-10-19T02:10:16.612Z,1014.17
2018-10-19T02:11:16.287Z,1014.14
2018-10-19T02:12:17.295Z,1014.14
2018-10-19T02:13:17.381Z,1014.18
2018-10-19T02:14:16.350Z,1014.17
2018-10-19T02:15:15.230Z,1014.18
2018-10-19T02:16:14.311Z,1014.2
2018-10-19T02:17:14.947Z,1014.22
2018-10-19T02:18:14.263Z,1014.19
2018-10-19T02:19:25.451Z,1014.19
2018-10-19T02:22:11.997Z,1014.13
2018-10-19T02:23:05.297Z,1014.17
2018-10-19T02:23:57.652Z,1014.16
2018-10-19T02:24:50.230Z,1014.15
2018-10-19T02:25:42.896Z,1014.11
2018-10-19T02:26:35.260Z,1014.13
2018-10-19T02:27:27.287Z,1014.11
2018-10-19T02:28:19.396Z,1014.14
2018-10-19T02:29:11.763Z,1014.15
2018-10-19T02:30:04.115Z,1014.18
2018-10-19T02:30:56.167Z,1014.19
2018-10-19T02:31:48.280Z,1014.18
2018-10-19T02:32:40.452Z,1014.2
2018-10-19T02:33:32.799Z,1014.16
2018-10-19T02:34:25.250Z,1014.13
2018-10-19T02:35:17.766Z,1014.14
2018-10-19T02:36:09.811Z,1014.14
2018-10-19T02:37:02.118Z,1014.16
2018-10-19T02:37:54.211Z,1014.2
2018-10-19T02:38:46.641Z,1014.23
2018-10-19T02:39:38.620Z,1014.22
2018-10-19T02:40:31.508Z,1014.2
2018-10-19T02:41:23.617Z,1014.21
2018-10-19T02:42:15.801Z,1014.19
2018-10-19T02:43:07.942Z,1014.19
2018-10-19T02:44:00.149Z,1014.19
2018-10-19T02:44:52.187Z,1014.18
2018-10-19T02:45:44.167Z,1014.19
2018-10-19T02:46:36.445Z,1014.2
2018-10-19T02:47:28.662Z,1014.17
2018-10-19T02:48:20.746Z,1014.16
2018-10-19T02:49:12.672Z,1014.16
2018-10-19T02:50:05.293Z,1014.2
2018-10-19T02:50:57.755Z,1014.2
2018-10-19T02:51:49.991Z,1014.15
2018-10-19T02:52:42.225Z,1014.18
2018-10-19T02:53:34.342Z,1014.18
2018-10-19T02:54:26.652Z,1014.17
2018-10-19T02:55:18.812Z,1014.2
2018-10-19T02:56:11.546Z,1014.23
2018-10-19T02:57:03.753Z,1014.21
2018-10-19T02:57:56.047Z,1014.2
2018-10-19T02:58:49.275Z,1014.2
2018-10-19T02:59:41.851Z,1014.19
2018-10-19T03:00:34.797Z,1014.19
2018-10-19T03:01:27.025Z,1014.19
2018-10-19T03:02:19.297Z,1014.24
2018-10-19T03:03:11.834Z,1014.24
2018-10-19T03:04:04.098Z,1014.22
2018-10-19T03:04:56.181Z,1014.28
2018-10-19T03:05:48.432Z,1014.26
2018-10-19T03:06:40.800Z,1014.24
2018-10-19T03:07:33.666Z,1014.24
2018-10-19T03:08:26.657Z,1014.25
2018-10-19T03:09:18.937Z,1014.26
2018-10-19T03:10:11.052Z,1014.25
2018-10-19T03:11:03.413Z,1014.23
2018-10-19T03:11:55.113Z,1014.26
2018-10-19T03:12:47.569Z,1014.23
2018-10-19T03:13:39.635Z,1014.26
2018-10-19T03:14:32.094Z,1014.27
2018-10-19T03:15:24.215Z,1014.25
2018-10-19T03:16:16.455Z,1014.28
2018-10-19T03:17:08.972Z,1014.23
2018-10-19T03:18:01.649Z,1014.23
2018-10-19T03:18:54.076Z,1014.26
2018-10-19T03:19:46.080Z,1014.25
2018-10-19T03:20:38.174Z,1014.26
2018-10-19T03:21:30.739Z,1014.23
2018-10-19T03:22:23.379Z,1014.27
2018-10-19T03:23:15.506Z,1014.22
2018-10-19T03:24:07.759Z,1014.21
2018-10-19T03:24:59.882Z,1014.21
2018-10-19T03:25:52.059Z,1014.2
2018-10-19T03:26:44.824Z,1014.23
2018-10-19T03:27:36.935Z,1014.22
2018-10-19T03:28:28.679Z,1014.19
2018-10-19T03:29:21.343Z,1014.22
2018-10-19T03:30:14.067Z,1014.18
2018-10-19T03:31:10.019Z,1014.2
2018-10-19T03:32:05.510Z,1014.17
2018-10-19T03:32:58.664Z,1014.18
2018-10-19T03:37:46.504Z,1014.23
2018-10-19T03:38:26.928Z,1014.18
2018-10-19T03:39:07.370Z,1014.17
2018-10-19T03:41:34.014Z,1014.24
2018-10-19T03:42:26.019Z,1014.23
2018-10-19T03:43:18.221Z,1014.22
2018-10-19T03:44:10.183Z,1014.24
2018-10-19T03:45:02.271Z,1014.28
2018-10-19T03:45:54.598Z,1014.25
2018-10-19T03:46:46.949Z,1014.26
2018-10-19T03:47:39.347Z,1014.27
2018-10-19T03:48:31.670Z,1014.28
2018-10-19T03:49:23.904Z,1014.26
2018-10-19T03:50:15.992Z,1014.32
2018-10-19T03:52:41.452Z,1014.37
2018-10-19T03:53:34.005Z,1014.37
2018-10-19T03:54:26.466Z,1014.39
2018-10-19T03:55:18.931Z,1014.36
2018-10-19T03:56:11.482Z,1014.36
2018-10-19T03:57:03.895Z,1014.36
2018-10-19T03:57:56.387Z,1014.4
2018-10-19T03:58:49.170Z,1014.35
2018-10-19T03:59:48.384Z,1014.41
2018-10-19T04:00:40.855Z,1014.36
2018-10-19T04:01:33.311Z,1014.39
2018-10-19T04:02:25.921Z,1014.35
2018-10-19T04:03:18.344Z,1014.39
2018-10-19T04:04:10.839Z,1014.41
2018-10-19T04:05:04.478Z,1014.39
2018-10-19T04:05:57.577Z,1014.44
2018-10-19T04:06:50.517Z,1014.44
2018-10-19T04:07:43.178Z,1014.44
2018-10-19T04:08:39.243Z,1014.44
2018-10-19T04:09:33.521Z,1014.41
2018-10-19T04:10:25.982Z,1014.46
2018-10-19T04:11:19.047Z,1014.43
2018-10-19T04:12:11.510Z,1014.42
2018-10-19T04:13:03.784Z,1014.43
2018-10-19T04:13:55.865Z,1014.49
2018-10-19T04:14:48.503Z,1014.47
2018-10-19T04:15:40.815Z,1014.47
2018-10-19T04:16:33.426Z,1014.45
2018-10-19T04:17:25.927Z,1014.46
2018-10-19T04:18:18.339Z,1014.45
2018-10-19T04:19:12.277Z,1014.46
2018-10-19T04:20:04.354Z,1014.47
2018-10-19T04:20:56.441Z,1014.45
2018-10-19T04:21:48.757Z,1014.46
2018-10-19T04:22:41.355Z,1014.5
2018-10-19T04:23:33.418Z,1014.48
2018-10-19T04:24:25.898Z,1014.49
2018-10-19T04:25:17.962Z,1014.48
2018-10-19T04:26:10.027Z,1014.49
2018-10-19T04:27:02.380Z,1014.51
2018-10-19T04:27:54.766Z,1014.47
2018-10-19T05:06:30.745Z,1014.35
2018-10-19T05:07:24.215Z,1014.4
2018-10-19T05:08:17.620Z,1014.42
2018-10-19T05:10:19.258Z,1014.45
2018-10-19T05:11:11.926Z,1014.45
2018-10-19T05:12:04.105Z,1014.45
2018-10-19T05:12:57.786Z,1014.45
2018-10-19T05:13:50.156Z,1014.51
2018-10-19T05:14:42.684Z,1014.45
2018-10-19T05:15:41.180Z,1014.49
2018-10-19T05:16:41.340Z,1014.48
2018-10-19T05:17:33.758Z,1014.47
2018-10-19T05:18:26.204Z,1014.45
2018-10-19T05:19:18.760Z,1014.49
2018-10-19T05:20:12.269Z,1014.47
2018-10-19T05:21:04.468Z,1014.45
2018-10-19T05:21:58.996Z,1014.45
2018-10-19T05:22:59.762Z,1014.47
2018-10-19T05:23:58.570Z,1014.42
2018-10-19T05:25:01.335Z,1014.41
2018-10-19T05:26:09.523Z,1014.42
2018-10-19T05:27:14.317Z,1014.4
2018-10-19T05:28:16.699Z,1014.38
2018-10-19T05:29:13.550Z,1014.37
2018-10-19T05:30:11.330Z,1014.37
2018-10-19T05:31:04.365Z,1014.37
2018-10-19T05:31:59.063Z,1014.4
2018-10-19T05:32:53.953Z,1014.38
2018-10-19T05:33:51.139Z,1014.42
2018-10-19T05:34:45.173Z,1014.41
2018-10-19T05:35:38.757Z,1014.4
2018-10-19T05:36:30.916Z,1014.44
2018-10-19T05:37:23.562Z,1014.4
2018-10-19T05:38:15.908Z,1014.42
2018-10-19T05:39:10.493Z,1014.44
2018-10-19T05:40:02.842Z,1014.42
2018-10-19T05:40:55.382Z,1014.46
2018-10-19T05:41:48.475Z,1014.49
2018-10-19T05:42:41.495Z,1014.48
2018-10-19T05:43:33.892Z,1014.48
2018-10-19T05:44:26.611Z,1014.44
2018-10-19T05:45:19.436Z,1014.45
2018-10-19T05:46:12.025Z,1014.48
2018-10-19T05:47:04.732Z,1014.51
2018-10-19T05:48:00.929Z,1014.51
2018-10-19T05:48:54.749Z,1014.51
2018-10-19T05:51:41.926Z,1014.52
2018-10-19T05:52:44.015Z,1014.54
2018-10-19T05:53:45.334Z,1014.5
2018-10-19T05:54:39.076Z,1014.52
2018-10-19T05:55:37.391Z,1014.53
2018-10-19T05:56:32.831Z,1014.54
2018-10-19T05:57:28.324Z,1014.53
2018-10-19T05:58:39.590Z,1014.54
2018-10-19T05:59:36.837Z,1014.54
2018-10-19T06:00:29.776Z,1014.59
2018-10-19T06:01:21.801Z,1014.6
2018-10-19T06:02:23.511Z,1014.59
2018-10-19T06:03:15.766Z,1014.56
2018-10-19T06:04:11.391Z,1014.57
2018-10-19T06:05:06.396Z,1014.56
2018-10-19T06:05:59.207Z,1014.54
2018-10-19T06:06:51.764Z,1014.56
2018-10-19T06:07:45.758Z,1014.54
2018-10-19T06:08:38.129Z,1014.54
2018-10-19T06:11:06.182Z,1014.49
2018-10-19T06:11:59.449Z,1014.5
2018-10-19T06:12:51.612Z,1014.56
2018-10-19T06:13:46.115Z,1014.56
2018-10-19T06:16:23.424Z,1014.6
2018-10-19T06:17:15.929Z,1014.61
2018-10-19T06:18:08.628Z,1014.64
2018-10-19T06:19:01.232Z,1014.66
2018-10-19T06:19:53.646Z,1014.65
2018-10-19T06:20:46.185Z,1014.69
2018-10-19T06:21:39.617Z,1014.67
2018-10-19T06:22:33.501Z,1014.71
2018-10-19T06:23:34.456Z,1014.72
2018-10-19T06:24:26.578Z,1014.7
2018-10-19T06:25:20.663Z,1014.75
2018-10-19T06:26:17.840Z,1014.74
2018-10-19T06:27:11.556Z,1014.75
2018-10-19T06:28:05.314Z,1014.78
2018-10-19T06:28:57.774Z,1014.79
2018-10-19T06:29:50.207Z,1014.78
2018-10-19T06:30:43.667Z,1014.78
2018-10-19T06:31:37.610Z,1014.77
2018-10-19T06:32:30.868Z,1014.78
2018-10-19T06:33:23.577Z,1014.77
2018-10-19T06:34:16.754Z,1014.8
2018-10-19T06:35:09.532Z,1014.85
2018-10-19T06:36:01.840Z,1014.78
2018-10-19T06:36:54.550Z,1014.82
2018-10-19T06:37:47.019Z,1014.84
2018-10-19T06:38:40.203Z,1014.84
2018-10-19T06:39:32.857Z,1014.83
2018-10-19T06:40:29.454Z,1014.87
2018-10-19T06:41:23.747Z,1014.8
2018-10-19T06:42:19.232Z,1014.86
2018-10-19T06:43:12.593Z,1014.87
2018-10-19T06:44:09.823Z,1014.89
2018-10-19T06:45:06.142Z,1014.86
2018-10-19T06:46:01.989Z,1014.9
2018-10-19T06:46:55.535Z,1014.92
2018-10-19T06:47:49.371Z,1014.9
2018-10-19T06:48:41.671Z,1014.87
2018-10-19T06:49:34.230Z,1014.89
2018-10-19T06:50:27.100Z,1014.89
2018-10-19T06:51:19.313Z,1014.85
2018-10-19T06:52:12.425Z,1014.84
2018-10-19T06:53:09.895Z,1014.81
2018-10-19T06:54:02.708Z,1014.81
2018-10-19T06:54:54.576Z,1014.81
2018-10-19T06:55:47.334Z,1014.87
2018-10-19T06:56:40.232Z,1014.81
2018-10-19T06:57:32.508Z,1014.87
2018-10-19T06:58:24.616Z,1014.87
2018-10-19T06:59:18.171Z,1014.87
2018-10-19T07:00:10.803Z,1014.88
2018-10-19T07:01:03.079Z,1014.89
2018-10-19T07:01:54.948Z,1014.88
2018-10-19T07:02:47.023Z,1014.89
2018-10-19T07:03:29.348Z,1014.9
2018-10-19T07:04:09.853Z,1014.91
2018-10-19T07:04:50.291Z,1014.92
2018-10-19T07:05:30.910Z,1014.92
2018-10-19T07:06:11.361Z,1014.92
2018-10-19T07:06:52.339Z,1014.94
2018-10-19T07:07:32.473Z,1014.94
2018-10-19T07:08:13.180Z,1014.96
2018-10-19T07:08:54.159Z,1014.96
2018-10-19T07:09:34.565Z,1014.94
2018-10-19T07:10:15.879Z,1014.95
2018-10-19T07:10:57.188Z,1014.95
2018-10-19T07:11:40.153Z,1015.01
2018-10-19T07:12:20.991Z,1014.97
2018-10-19T07:13:01.737Z,1014.96
2018-10-19T07:13:42.077Z,1014.97
2018-10-19T07:14:22.713Z,1014.97
2018-10-19T07:15:03.062Z,1014.98
2018-10-19T07:15:43.553Z,1014.98
2018-10-19T07:16:24.675Z,1015
2018-10-19T07:17:05.083Z,1014.98
2018-10-19T07:17:45.600Z,1015
2018-10-19T07:18:26.019Z,1015
2018-10-19T07:19:06.513Z,1014.97
2018-10-19T07:19:47.041Z,1014.97
2018-10-19T07:20:27.700Z,1014.99
2018-10-19T07:21:08.151Z,1014.99
2018-10-19T07:21:49.213Z,1015.02
2018-10-19T07:22:29.543Z,1015.03
2018-10-19T07:23:10.019Z,1015.06
2018-10-19T07:23:50.562Z,1015.05
2018-10-19T07:24:31.143Z,1015.12
2018-10-19T07:25:11.842Z,1015.09
2018-10-19T07:25:52.099Z,1015.09
2018-10-19T07:26:32.751Z,1015.07
2018-10-19T07:27:13.149Z,1015.15
2018-10-19T07:27:53.729Z,1015.09
2018-10-19T07:28:35.219Z,1015.09
2018-10-19T07:29:16.120Z,1015.12
2018-10-19T07:29:56.544Z,1015.11
2018-10-19T07:30:40.246Z,1015.12
2018-10-19T07:31:20.717Z,1015.07
2018-10-19T07:32:09.486Z,1015.07
2018-10-19T07:32:51.689Z,1015.11
2018-10-19T07:33:32.148Z,1015.09
2018-10-19T07:34:20.714Z,1015.11
2018-10-19T07:35:00.504Z,1015.09
2018-10-19T07:35:40.810Z,1015.1
2018-10-19T07:36:21.368Z,1015.13
2018-10-19T07:37:01.677Z,1015.14
2018-10-19T07:37:42.166Z,1015.12
2018-10-19T07:38:22.542Z,1015.13
2018-10-19T07:39:03.057Z,1015.11
2018-10-19T07:39:43.979Z,1015.14
2018-10-19T07:40:24.625Z,1015.12
2018-10-19T07:41:05.240Z,1015.14
2018-10-19T07:41:45.879Z,1015.13
2018-10-19T07:42:26.485Z,1015.19
2018-10-19T07:43:06.771Z,1015.14
2018-10-19T07:43:47.177Z,1015.16
2018-10-19T07:44:28.428Z,1015.15
2018-10-19T07:45:08.861Z,1015.17
2018-10-19T07:45:49.104Z,1015.16
2018-10-19T07:46:29.743Z,1015.16
2018-10-19T07:47:10.403Z,1015.17
2018-10-19T07:47:50.789Z,1015.19
2018-10-19T07:48:31.138Z,1015.17
2018-10-19T07:49:11.572Z,1015.2
2018-10-19T07:49:52.266Z,1015.18
2018-10-19T07:50:32.829Z,1015.21
2018-10-19T07:51:13.533Z,1015.2
2018-10-19T07:51:54.284Z,1015.19
2018-10-19T07:52:35.400Z,1015.2
2018-10-19T07:53:15.569Z,1015.22
2018-10-19T07:53:56.181Z,1015.22
2018-10-19T07:54:36.803Z,1015.21
2018-10-19T07:55:17.054Z,1015.24
2018-10-19T07:55:57.510Z,1015.21
2018-10-19T07:56:37.975Z,1015.23
2018-10-19T07:57:18.640Z,1015.19
2018-10-19T07:57:59.003Z,1015.28
2018-10-19T07:58:39.486Z,1015.28
2018-10-19T07:59:20.238Z,1015.31
2018-10-19T08:00:00.852Z,1015.27
2018-10-19T08:00:41.162Z,1015.3
2018-10-19T08:01:21.527Z,1015.33
2018-10-19T08:02:01.982Z,1015.33
2018-10-19T08:02:42.928Z,1015.36
2018-10-19T08:03:23.664Z,1015.38
2018-10-19T08:04:04.201Z,1015.36
2018-10-19T08:04:44.515Z,1015.39
2018-10-19T08:05:25.000Z,1015.39
2018-10-19T08:06:05.519Z,1015.4
2018-10-19T08:06:46.075Z,1015.4
2018-10-19T08:07:27.154Z,1015.39
2018-10-19T08:08:07.557Z,1015.38
2018-10-19T08:08:49.035Z,1015.38
2018-10-19T08:09:30.789Z,1015.4
2018-10-19T08:11:50.904Z,1015.4
2018-10-19T08:12:31.253Z,1015.4
2018-10-19T08:13:11.705Z,1015.42
2018-10-19T08:13:52.195Z,1015.39
2018-10-19T08:14:32.580Z,1015.38
2018-10-19T08:15:13.002Z,1015.43
2018-10-19T08:15:53.438Z,1015.37
2018-10-19T08:16:33.904Z,1015.39
2018-10-19T08:17:14.364Z,1015.38
2018-10-19T08:17:54.743Z,1015.41
2018-10-19T08:18:35.168Z,1015.42
2018-10-19T08:19:15.952Z,1015.4
2018-10-19T08:19:56.417Z,1015.41
2018-10-19T08:20:36.884Z,1015.41
2018-10-19T08:21:17.524Z,1015.36
2018-10-19T08:21:57.876Z,1015.39
2018-10-19T08:22:38.343Z,1015.37
2018-10-19T08:23:18.733Z,1015.39
2018-10-19T08:23:59.155Z,1015.4
2018-10-19T08:24:39.626Z,1015.39
2018-10-19T08:25:20.178Z,1015.39
2018-10-19T08:26:00.655Z,1015.4
2018-10-19T08:26:41.055Z,1015.41
2018-10-19T08:27:21.710Z,1015.42
2018-10-19T08:28:02.092Z,1015.43
2018-10-19T08:28:42.568Z,1015.44
2018-10-19T08:29:22.994Z,1015.44
2018-10-19T08:31:46.336Z,1015.47
2018-10-19T08:32:39.952Z,1015.47
2018-10-19T08:33:33.528Z,1015.46
2018-10-19T08:34:26.313Z,1015.46
2018-10-19T08:35:23.776Z,1015.41
2018-10-19T08:36:17.164Z,1015.41
2018-10-19T08:37:09.610Z,1015.43
2018-10-19T08:38:05.316Z,1015.44
2018-10-19T08:38:57.793Z,1015.45
2018-10-19T08:39:50.559Z,1015.48
2018-10-19T08:40:44.135Z,1015.48
2018-10-19T08:41:44.242Z,1015.53
2018-10-19T08:47:44.378Z,1015.49
2018-10-19T08:48:39.435Z,1015.5
2018-10-19T08:49:33.899Z,1015.54
2018-10-19T08:50:28.714Z,1015.53
2018-10-19T08:51:27.023Z,1015.54
2018-10-19T08:52:22.894Z,1015.55
2018-10-19T08:53:27.462Z,1015.53
2018-10-19T08:54:19.703Z,1015.55
2018-10-19T08:55:19.616Z,1015.51
2018-10-19T08:56:34.331Z,1015.54
2018-10-19T08:57:36.125Z,1015.54
2018-10-19T08:58:28.847Z,1015.54
2018-10-19T08:59:23.232Z,1015.52
2018-10-19T09:00:23.703Z,1015.54
2018-10-19T09:01:27.504Z,1015.54
2018-10-19T09:02:29.753Z,1015.55
2018-10-19T09:03:28.127Z,1015.58
2018-10-19T09:04:28.246Z,1015.61
2018-10-19T09:05:26.500Z,1015.61
2018-10-19T09:06:27.586Z,1015.61
2018-10-19T09:07:29.654Z,1015.61
2018-10-19T09:08:29.780Z,1015.61
2018-10-19T09:09:32.192Z,1015.63
2018-10-19T09:10:27.898Z,1015.62
2018-10-19T09:11:23.733Z,1015.61
2018-10-19T09:12:18.624Z,1015.61
2018-10-19T09:12:59.476Z,1015.63
2018-10-19T09:13:39.727Z,1015.65
2018-10-19T09:14:20.134Z,1015.67
2018-10-19T09:15:00.638Z,1015.65
2018-10-19T09:15:40.974Z,1015.61
2018-10-19T09:16:22.205Z,1015.65
2018-10-19T09:17:02.787Z,1015.65
2018-10-19T09:19:37.228Z,1015.62
2018-10-19T09:20:29.272Z,1015.6
2018-10-19T09:21:22.827Z,1015.6
2018-10-19T09:22:17.480Z,1015.59
2018-10-19T09:23:11.425Z,1015.62
2018-10-19T09:24:06.324Z,1015.6
2018-10-19T09:24:59.326Z,1015.57
2018-10-19T09:25:53.446Z,1015.59
2018-10-19T09:26:49.021Z,1015.6
2018-10-19T09:27:41.318Z,1015.6
2018-10-19T09:29:59.514Z,1015.62
2018-10-19T09:30:55.871Z,1015.61
2018-10-19T09:31:55.096Z,1015.6
2018-10-19T09:32:47.256Z,1015.65
2018-10-19T09:33:46.173Z,1015.59
2018-10-19T09:34:41.797Z,1015.58
2018-10-19T09:35:34.349Z,1015.6
2018-10-19T09:36:28.452Z,1015.62
2018-10-19T09:37:20.785Z,1015.6
2018-10-19T09:38:14.774Z,1015.6
2018-10-19T09:39:09.780Z,1015.6
2018-10-19T09:40:04.718Z,1015.57
2018-10-19T09:40:58.818Z,1015.55
2018-10-19T09:41:52.403Z,1015.61
2018-10-19T09:42:45.986Z,1015.6
2018-10-19T09:44:55.230Z,1015.59
2018-10-19T09:45:49.163Z,1015.59
2018-10-19T09:46:42.271Z,1015.64
2018-10-19T09:47:35.793Z,1015.65
2018-10-19T09:48:29.248Z,1015.66
2018-10-19T09:49:22.715Z,1015.62
2018-10-19T09:50:24.712Z,1015.58
2018-10-19T09:51:19.748Z,1015.6
2018-10-19T09:52:17.027Z,1015.58
2018-10-19T09:53:10.978Z,1015.6
2018-10-19T09:54:04.753Z,1015.59
2018-10-19T09:54:59.611Z,1015.58
2018-10-19T09:55:54.485Z,1015.58
2018-10-19T09:56:47.322Z,1015.55
2018-10-19T09:57:41.288Z,1015.59
2018-10-19T09:58:34.519Z,1015.54
2018-10-19T09:59:29.578Z,1015.52
2018-10-19T10:00:22.463Z,1015.54
2018-10-19T10:01:22.271Z,1015.51
2018-10-19T10:02:16.355Z,1015.52
2018-10-19T10:03:17.363Z,1015.52
2018-10-19T10:04:10.204Z,1015.5
2018-10-19T10:05:02.590Z,1015.53
2018-10-19T10:05:55.931Z,1015.52
2018-10-19T10:06:48.902Z,1015.53
2018-10-19T10:07:41.503Z,1015.51
2018-10-19T10:08:34.363Z,1015.5
2018-10-19T10:09:27.451Z,1015.52
2018-10-19T10:10:20.428Z,1015.49
2018-10-19T10:11:15.575Z,1015.49
2018-10-19T10:12:08.550Z,1015.49
2018-10-19T10:13:01.474Z,1015.48
2018-10-19T10:13:57.522Z,1015.48
2018-10-19T10:14:51.214Z,1015.43
2018-10-19T10:15:43.954Z,1015.42
2018-10-19T10:16:36.971Z,1015.39
2018-10-19T10:17:35.240Z,1015.39
2018-10-19T10:18:32.847Z,1015.38
2018-10-19T10:19:27.433Z,1015.37
2018-10-19T10:20:20.971Z,1015.38
2018-10-19T10:21:14.203Z,1015.35
2018-10-19T10:22:09.076Z,1015.37
2018-10-19T10:23:04.709Z,1015.38
2018-10-19T10:23:56.643Z,1015.38
2018-10-19T10:24:49.075Z,1015.34
2018-10-19T10:25:41.505Z,1015.36
2018-10-19T10:26:40.458Z,1015.31
2018-10-19T10:27:32.935Z,1015.27
2018-10-19T10:28:27.487Z,1015.29
2018-10-19T10:29:22.504Z,1015.3
2018-10-19T11:07:20.664Z,1014.96
2018-10-19T11:08:03.689Z,1014.98
2018-10-19T11:08:43.882Z,1014.99
2018-10-19T11:09:24.305Z,1014.94
2018-10-19T11:10:05.062Z,1014.99
2018-10-19T11:10:45.448Z,1015
2018-10-19T11:11:26.284Z,1014.97
2018-10-19T11:12:07.115Z,1014.99
2018-10-19T11:12:47.731Z,1015
2018-10-19T11:13:28.309Z,1014.96
2018-10-19T11:14:09.456Z,1014.95
2018-10-19T11:14:50.119Z,1014.95
2018-10-19T11:15:30.554Z,1015.02
2018-10-19T11:16:11.210Z,1014.99
2018-10-19T11:16:51.710Z,1014.94
2018-10-19T11:17:31.912Z,1014.95
2018-10-19T11:18:13.475Z,1014.94
2018-10-19T11:18:53.818Z,1014.93
2018-10-19T11:19:35.066Z,1014.92
2018-10-19T11:20:15.510Z,1014.92
2018-10-19T11:20:56.979Z,1014.89
2018-10-19T11:21:37.591Z,1014.94
2018-10-19T11:22:18.019Z,1014.95
2018-10-19T11:22:58.460Z,1014.93
2018-10-19T11:23:38.829Z,1014.9
2018-10-19T11:24:19.399Z,1014.93
2018-10-19T11:24:59.735Z,1014.93
2018-10-19T11:25:40.283Z,1014.9
2018-10-19T11:26:20.550Z,1014.93
2018-10-19T11:27:00.984Z,1014.92
2018-10-19T11:27:41.396Z,1014.94
2018-10-19T11:28:21.981Z,1014.91
2018-10-19T11:29:02.255Z,1014.93
2018-10-19T11:29:42.680Z,1014.94
2018-10-19T11:30:23.185Z,1014.9
2018-10-19T11:31:04.040Z,1014.91
2018-10-19T11:31:44.211Z,1014.98
2018-10-19T11:32:24.889Z,1014.98
2018-10-19T11:33:05.490Z,1014.95
2018-10-19T11:33:46.114Z,1014.94
2018-10-19T11:34:28.114Z,1014.95
2018-10-19T11:35:08.848Z,1014.98
2018-10-19T11:42:23.749Z,1014.91
2018-10-19T11:43:04.213Z,1014.93
2018-10-19T11:43:44.599Z,1014.92
2018-10-19T11:50:16.690Z,1014.93
2018-10-19T11:55:54.884Z,1014.93
2018-10-19T12:03:06.026Z,1014.83
2018-10-19T12:03:45.826Z,1014.86
2018-10-19T12:04:32.233Z,1014.85
2018-10-19T12:06:14.852Z,1014.84
2018-10-19T12:06:56.618Z,1014.88
2018-10-19T12:24:27.709Z,1014.81
2018-10-19T12:25:05.260Z,1014.8
2018-10-19T12:25:46.459Z,1014.8
2018-10-19T12:26:41.847Z,1014.77
2018-10-19T12:48:38.883Z,1014.64
2018-10-19T12:49:19.678Z,1014.61
2018-10-19T12:49:59.970Z,1014.65
2018-10-19T12:50:40.684Z,1014.66
2018-10-19T12:51:21.189Z,1014.65
2018-10-19T12:52:01.863Z,1014.65
2018-10-19T12:52:42.252Z,1014.63
2018-10-19T12:53:22.658Z,1014.62
2018-10-19T12:54:03.146Z,1014.64
2018-10-19T12:54:44.546Z,1014.6
2018-10-19T12:55:27.534Z,1014.63
2018-10-19T12:58:05.159Z,1014.55
2018-10-19T12:58:45.790Z,1014.58
2018-10-19T12:59:26.868Z,1014.56
2018-10-19T13:00:35.754Z,1014.54
2018-10-19T13:01:16.028Z,1014.53
2018-10-19T13:03:01.083Z,1014.53
2018-10-19T13:03:41.600Z,1014.45
2018-10-19T13:04:22.584Z,1014.43
2018-10-19T13:05:10.060Z,1014.46
2018-10-19T13:05:51.960Z,1014.45
2018-10-19T13:06:32.296Z,1014.49
2018-10-19T13:07:12.790Z,1014.49
2018-10-19T13:07:53.185Z,1014.49
2018-10-19T13:08:35.102Z,1014.45
2018-10-19T13:09:23.249Z,1014.45
2018-10-19T13:12:46.708Z,1014.44
2018-10-19T13:13:27.191Z,1014.46
2018-10-19T13:14:09.812Z,1014.45
2018-10-19T13:14:52.967Z,1014.42
2018-10-19T13:16:55.808Z,1014.36
2018-10-19T13:19:17.985Z,1014.33
2018-10-19T13:19:58.985Z,1014.31
2018-10-19T13:22:36.232Z,1014.26
2018-10-19T13:26:25.130Z,1014.23
2018-10-19T13:27:05.936Z,1014.26
2018-10-19T13:27:48.407Z,1014.3
2018-10-19T13:28:29.201Z,1014.27
2018-10-19T13:29:09.515Z,1014.26
2018-10-19T13:29:51.012Z,1014.28